Time;durP1;ratioP1;P1;durP2;ratioP2;P2;SDS_P1;SDS_P2;PMS_P1;PMS_P2;Temp;Humidity;BMP_temperature;BMP_pressure;BME280_temperature;BME280_humidity;BME280_pressure;Samples;Min_cycle;Max_cycle;Signal;HPM_P1;HPM_P2
2022/11/16 00:01:29;;;;;;;13.47;10.77;;;12.70;99.90;;;;;;5057591;28;20662;-76
2022/11/16 00:03:58;;;;;;;12.73;11.30;;;12.70;99.90;;;;;;5055184;28;20195;-76
2022/11/16 00:06:27;;;;;;;13.23;10.97;;;12.70;99.90;;;;;;5067926;28;20269;-76
2022/11/16 00:11:50;;;;;;;14.33;10.80;;;12.70;99.90;;;;;;5093140;28;20772;-76
2022/11/16 00:14:18;;;;;;;13.63;11.40;;;12.70;99.90;;;;;;5052524;28;20276;-76
2022/11/16 00:16:45;;;;;;;14.47;11.67;;;12.70;99.90;;;;;;5069033;28;20268;-76
2022/11/16 00:19:13;;;;;;;13.23;11.07;;;12.70;99.90;;;;;;5044959;28;20194;-76
2022/11/16 00:21:40;;;;;;;15.27;10.80;;;12.70;99.90;;;;;;5069461;28;20189;-76
2022/11/16 00:24:09;;;;;;;18.87;10.93;;;12.70;99.90;;;;;;5067863;28;20198;-76
2022/11/16 00:26:35;;;;;;;12.53;11.00;;;12.70;99.90;;;;;;5048640;28;20213;-76
2022/11/16 00:29:02;;;;;;;12.77;10.97;;;12.70;99.90;;;;;;5067811;28;20198;-76
2022/11/16 00:31:29;;;;;;;10.73;9.70;;;12.70;99.90;;;;;;5085503;28;20187;-76
2022/11/16 00:33:57;;;;;;;12.07;10.60;;;12.60;99.90;;;;;;5086919;28;20193;-76
2022/11/16 00:36:24;;;;;;;12.73;10.70;;;12.60;99.90;;;;;;5054287;28;20191;-76
2022/11/16 00:38:52;;;;;;;13.83;10.33;;;12.60;99.90;;;;;;5070591;28;20615;-76
2022/11/16 00:41:19;;;;;;;14.87;10.60;;;12.60;99.90;;;;;;5069778;28;20690;-76
2022/11/16 00:43:46;;;;;;;14.63;10.57;;;12.60;99.90;;;;;;5070902;28;20233;-76
2022/11/16 00:46:13;;;;;;;12.43;10.30;;;12.60;99.90;;;;;;5040670;28;20225;-76
2022/11/16 00:48:40;;;;;;;13.73;10.33;;;12.60;99.90;;;;;;5065402;28;20202;-76
2022/11/16 00:51:06;;;;;;;15.73;10.90;;;12.50;99.90;;;;;;5063787;28;20331;-76
2022/11/16 00:53:34;;;;;;;11.27;10.17;;;12.50;99.90;;;;;;5050065;28;20190;-76
2022/11/16 00:56:01;;;;;;;13.83;10.20;;;12.50;99.90;;;;;;5084941;28;20187;-76
2022/11/16 00:58:28;;;;;;;11.37;10.17;;;12.50;99.90;;;;;;5075083;28;20219;-76
2022/11/16 01:00:54;;;;;;;12.27;10.53;;;12.40;99.90;;;;;;5058513;28;20797;-77
2022/11/16 01:03:20;;;;;;;11.93;10.60;;;12.40;99.90;;;;;;5067038;28;20234;-77
2022/11/16 01:05:47;;;;;;;14.70;10.90;;;12.50;99.90;;;;;;5059671;28;20207;-77
2022/11/16 01:08:13;;;;;;;12.90;9.90;;;12.40;99.90;;;;;;5072618;28;20194;-76
2022/11/16 01:10:40;;;;;;;12.87;10.63;;;12.40;99.90;;;;;;5077820;28;20198;-77
2022/11/16 01:13:10;;;;;;;13.73;10.73;;;12.40;99.90;;;;;;5063385;28;20179;-77
2022/11/16 01:15:36;;;;;;;13.70;10.40;;;12.40;99.90;;;;;;5056424;28;20636;-77
2022/11/16 01:18:03;;;;;;;14.30;10.83;;;12.40;99.90;;;;;;5060074;28;20213;-77
2022/11/16 01:20:29;;;;;;;12.03;10.57;;;12.30;99.90;;;;;;5056132;28;20185;-76
2022/11/16 01:22:56;;;;;;;12.60;9.63;;;12.30;99.90;;;;;;5073663;28;20194;-77
2022/11/16 01:25:23;;;;;;;12.93;10.80;;;12.30;99.90;;;;;;5073817;28;20757;-76
2022/11/16 01:27:50;;;;;;;11.77;10.37;;;12.30;99.90;;;;;;5068789;28;20313;-77
2022/11/16 01:30:17;;;;;;;15.63;10.53;;;12.40;99.90;;;;;;5063100;28;20191;-77
2022/11/16 01:32:43;;;;;;;14.13;10.37;;;12.40;99.90;;;;;;5070547;28;20197;-77
2022/11/16 01:35:15;;;;;;;13.67;11.30;;;12.40;99.90;;;;;;5068122;28;20197;-77
2022/11/16 01:37:41;;;;;;;12.50;10.47;;;12.40;99.90;;;;;;5052084;28;20195;-77
2022/11/16 01:40:12;;;;;;;15.40;10.73;;;12.40;99.90;;;;;;5073486;28;20313;-77
2022/11/16 01:42:39;;;;;;;13.90;10.80;;;12.40;99.90;;;;;;5054088;28;20193;-77
2022/11/16 01:45:17;;;;;;;14.20;10.70;;;12.40;99.90;;;;;;5091399;28;20270;-77
2022/11/16 01:47:45;;;;;;;15.57;12.10;;;12.40;99.90;;;;;;5084592;28;20806;-77
2022/11/16 01:50:17;;;;;;;13.67;11.07;;;12.50;99.90;;;;;;5072748;28;20198;-76
2022/11/16 01:52:56;;;;;;;12.83;10.87;;;12.50;99.90;;;;;;5095364;28;20301;-77
2022/11/16 01:55:25;;;;;;;14.87;10.93;;;12.50;99.90;;;;;;5085696;28;20608;-77
2022/11/16 01:57:51;;;;;;;14.87;10.80;;;12.50;99.90;;;;;;5076247;28;20203;-76
2022/11/16 02:00:18;;;;;;;13.63;10.67;;;12.50;99.90;;;;;;5074786;28;20186;-77
2022/11/16 02:02:45;;;;;;;13.00;11.27;;;12.60;99.90;;;;;;5066764;28;20201;-77
2022/11/16 02:05:18;;;;;;;14.30;11.03;;;12.60;99.90;;;;;;5074150;28;20213;-77
2022/11/16 02:11:13;;;;;;;14.30;11.43;;;12.60;99.90;;;;;;5076074;28;20190;-77
2022/11/16 02:14:14;;;;;;;14.97;11.07;;;12.70;99.90;;;;;;5080801;28;20277;-77
2022/11/16 02:17:11;;;;;;;15.83;11.73;;;12.70;99.90;;;;;;5089278;28;20255;-77
2022/11/16 02:20:13;;;;;;;13.67;11.07;;;12.70;99.90;;;;;;5069135;28;20651;-77
2022/11/16 02:23:26;;;;;;;13.40;11.90;;;12.70;99.90;;;;;;5049604;28;20551;-77
2022/11/16 02:26:51;;;;;;;11.50;10.07;;;12.70;99.90;;;;;;5076208;28;20221;-76
2022/11/16 02:29:36;;;;;;;13.43;11.50;;;12.70;99.90;;;;;;5096527;28;20182;-77
2022/11/16 02:32:19;;;;;;;14.37;10.67;;;12.70;99.90;;;;;;5057746;28;20186;-76
2022/11/16 02:35:16;;;;;;;12.37;10.33;;;12.70;99.90;;;;;;5088874;28;20190;-77
2022/11/16 02:37:55;;;;;;;14.40;10.70;;;12.70;99.90;;;;;;5069873;28;20187;-77
2022/11/16 02:40:30;;;;;;;11.93;10.63;;;12.70;99.90;;;;;;5073933;28;20209;-77
2022/11/16 02:43:07;;;;;;;13.83;10.27;;;12.60;99.90;;;;;;5076942;28;20625;-76
2022/11/16 02:45:43;;;;;;;14.67;9.70;;;12.60;99.90;;;;;;5082150;28;20574;-76
2022/11/16 02:48:21;;;;;;;12.20;10.43;;;12.70;99.90;;;;;;5060307;28;20201;-77
2022/11/16 02:50:52;;;;;;;16.33;11.43;;;12.70;99.90;;;;;;5061457;28;20192;-77
2022/11/16 02:53:23;;;;;;;13.20;10.60;;;12.70;99.90;;;;;;5095228;28;20197;-77
2022/11/16 02:55:50;;;;;;;14.83;11.47;;;12.70;99.90;;;;;;5076666;28;20194;-77
2022/11/16 02:58:23;;;;;;;12.70;10.53;;;12.70;99.90;;;;;;5100052;28;20205;-77
2022/11/16 03:01:09;;;;;;;16.03;10.53;;;12.80;99.90;;;;;;5100552;28;20271;-77
2022/11/16 03:03:42;;;;;;;15.53;11.23;;;12.80;99.90;;;;;;5056802;28;20187;-77
2022/11/16 03:06:35;;;;;;;13.57;10.33;;;12.80;99.90;;;;;;5076014;28;20356;-77
2022/11/16 03:09:08;;;;;;;14.20;10.87;;;12.90;99.90;;;;;;5072945;28;20887;-77
2022/11/16 03:12:00;;;;;;;12.17;10.20;;;12.90;99.90;;;;;;5075159;28;20229;-77
2022/11/16 03:15:01;;;;;;;11.87;9.93;;;12.90;99.90;;;;;;5089380;28;20197;-78
2022/11/16 03:17:45;;;;;;;12.30;11.00;;;13.00;99.90;;;;;;5064531;28;20246;-76
2022/11/16 03:20:19;;;;;;;13.07;10.43;;;13.00;99.90;;;;;;5074676;28;20763;-77
2022/11/16 03:23:04;;;;;;;13.80;11.10;;;13.10;99.90;;;;;;5074788;28;20185;-76
2022/11/16 03:25:59;;;;;;;13.57;10.17;;;13.10;99.90;;;;;;5077712;28;20225;-77
2022/11/16 03:29:10;;;;;;;12.93;11.00;;;13.10;99.90;;;;;;5080997;28;20206;-77
2022/11/16 03:31:49;;;;;;;11.10;9.97;;;13.10;99.90;;;;;;5060856;28;20194;-77
2022/11/16 03:34:21;;;;;;;12.10;10.27;;;13.10;99.90;;;;;;5076439;28;20194;-77
2022/11/16 03:36:51;;;;;;;14.50;10.90;;;13.10;99.90;;;;;;5071571;28;20205;-77
2022/11/16 03:39:32;;;;;;;13.17;9.47;;;13.10;99.90;;;;;;5080275;28;20193;-77
2022/11/16 03:42:02;;;;;;;11.53;10.07;;;13.20;99.90;;;;;;5061615;28;20187;-77
2022/11/16 03:44:30;;;;;;;11.20;10.03;;;13.20;99.90;;;;;;5060106;28;20206;-77
2022/11/16 03:47:00;;;;;;;11.93;10.17;;;13.20;99.90;;;;;;5095788;28;20213;-77
2022/11/16 03:49:30;;;;;;;11.47;10.23;;;13.20;99.90;;;;;;5061725;28;20181;-77
2022/11/16 03:51:57;;;;;;;12.70;10.43;;;13.20;99.90;;;;;;5063167;28;20190;-77
2022/11/16 03:54:25;;;;;;;12.83;10.27;;;13.20;99.90;;;;;;5052314;28;20179;-77
2022/11/16 03:56:51;;;;;;;13.17;10.03;;;13.20;99.90;;;;;;5063519;28;20186;-77
2022/11/16 03:59:17;;;;;;;14.50;10.57;;;13.20;99.90;;;;;;5081043;28;20202;-77
2022/11/16 04:01:44;;;;;;;18.40;10.50;;;13.20;99.90;;;;;;5078660;28;20213;-77
2022/11/16 04:24:10;;;;;;;11.77;9.90;;;13.20;99.90;;;;;;5072087;28;20198;-77
2022/11/16 04:28:11;;;;;;;12.77;9.80;;;13.10;99.90;;;;;;5087850;28;20223;-77
2022/11/16 04:29:11;;;;;;;13.97;10.87;;;13.10;99.90;;;;;;5089057;28;20182;-77
2022/11/16 04:40:00;;;;;;;15.07;10.93;;;13.10;99.90;;;;;;5075998;28;20191;-77
2022/11/16 04:42:28;;;;;;;16.10;10.73;;;13.10;99.90;;;;;;5078345;28;20190;-77
2022/11/16 04:47:41;;;;;;;17.50;11.03;;;13.10;99.90;;;;;;5073208;28;20222;-77
2022/11/16 04:50:10;;;;;;;13.00;10.83;;;13.20;99.90;;;;;;5093941;28;20727;-77
2022/11/16 04:52:37;;;;;;;11.47;9.63;;;13.20;99.90;;;;;;5085199;28;20247;-77
2022/11/16 04:55:04;;;;;;;12.20;10.60;;;13.20;99.90;;;;;;5074867;28;20193;-77
2022/11/16 04:57:31;;;;;;;13.40;9.80;;;13.20;99.90;;;;;;5062339;28;20186;-77
2022/11/16 04:59:57;;;;;;;13.90;10.70;;;13.30;99.90;;;;;;5076847;28;20254;-77
2022/11/16 05:02:24;;;;;;;13.47;9.97;;;13.30;99.90;;;;;;5070503;28;20222;-77
2022/11/16 05:04:50;;;;;;;16.30;10.73;;;13.30;99.90;;;;;;5066062;28;20193;-77
2022/11/16 05:07:18;;;;;;;12.60;10.23;;;13.30;99.90;;;;;;5053103;28;20245;-77
2022/11/16 05:09:48;;;;;;;11.53;9.80;;;13.40;99.90;;;;;;5088662;28;20178;-77
2022/11/16 05:12:20;;;;;;;11.27;9.97;;;13.40;99.90;;;;;;5090717;28;20190;-77
2022/11/16 05:14:48;;;;;;;14.50;10.43;;;13.30;99.90;;;;;;5082854;28;20758;-77
2022/11/16 05:17:21;;;;;;;11.77;10.27;;;13.40;99.90;;;;;;5080763;28;20197;-77
2022/11/16 05:22:37;;;;;;;13.73;10.57;;;13.40;99.90;;;;;;5093628;28;20239;-77
2022/11/16 05:25:09;;;;;;;11.17;10.00;;;13.40;99.90;;;;;;5070225;28;20882;-77
2022/11/16 05:27:36;;;;;;;14.87;11.00;;;13.50;99.90;;;;;;5059275;28;20202;-77
2022/11/16 05:30:07;;;;;;;14.50;10.37;;;13.50;99.90;;;;;;5060697;28;20642;-76
2022/11/16 05:32:34;;;;;;;14.97;11.10;;;13.60;99.90;;;;;;5086993;28;20197;-77
2022/11/16 05:35:00;;;;;;;12.67;10.63;;;13.60;99.90;;;;;;5084366;28;20216;-77
2022/11/16 05:37:29;;;;;;;12.60;10.33;;;13.70;99.90;;;;;;5058116;28;20242;-77
2022/11/16 05:39:56;;;;;;;12.47;10.47;;;13.70;99.90;;;;;;5060807;28;20202;-77
2022/11/16 05:42:23;;;;;;;11.70;10.23;;;13.70;99.90;;;;;;5085168;28;20207;-77
2022/11/16 05:44:49;;;;;;;11.40;10.00;;;13.80;99.90;;;;;;5080516;28;20199;-78
2022/11/16 05:47:17;;;;;;;13.87;10.27;;;13.80;99.90;;;;;;5068531;28;20250;-78
2022/11/16 05:49:43;;;;;;;11.00;9.90;;;13.80;99.90;;;;;;5077032;28;20193;-77
2022/11/16 05:52:10;;;;;;;11.07;9.97;;;13.90;99.90;;;;;;5086902;28;20232;-77
2022/11/16 05:54:38;;;;;;;15.03;10.57;;;13.90;99.90;;;;;;5068663;28;20182;-77
2022/11/16 05:57:04;;;;;;;12.63;10.70;;;13.90;99.90;;;;;;5070328;28;20182;-77
2022/11/16 05:59:30;;;;;;;14.67;10.77;;;13.90;99.90;;;;;;5081519;28;20221;-78
2022/11/16 06:01:57;;;;;;;11.60;10.20;;;14.00;99.90;;;;;;5048934;28;20194;-77
2022/11/16 06:04:23;;;;;;;13.63;11.53;;;14.00;99.90;;;;;;5084822;28;20187;-77
2022/11/16 06:06:51;;;;;;;12.40;11.10;;;14.00;99.90;;;;;;5062048;28;20221;-77
2022/11/16 06:09:17;;;;;;;12.70;10.53;;;14.00;99.90;;;;;;5059280;28;20273;-77
2022/11/16 06:11:43;;;;;;;12.87;10.90;;;14.10;99.90;;;;;;5057913;28;20185;-77
2022/11/16 06:14:10;;;;;;;13.70;10.70;;;14.10;99.90;;;;;;5069922;28;20174;-77
2022/11/16 06:16:36;;;;;;;14.70;11.77;;;14.10;99.90;;;;;;5093287;28;20189;-77
2022/11/16 06:19:03;;;;;;;15.53;10.20;;;14.10;99.90;;;;;;5070436;28;20193;-77
2022/11/16 06:21:29;;;;;;;12.07;10.47;;;14.20;99.90;;;;;;5088538;28;20226;-77
2022/11/16 06:23:55;;;;;;;11.77;10.57;;;14.20;99.90;;;;;;5045216;28;20580;-77
2022/11/16 06:26:22;;;;;;;13.30;11.10;;;14.20;99.90;;;;;;5067717;28;20500;-77
2022/11/16 06:28:48;;;;;;;13.80;11.20;;;14.20;99.90;;;;;;5062170;28;20179;-77
2022/11/16 06:31:15;;;;;;;12.23;10.93;;;14.30;99.90;;;;;;5056110;28;20505;-77
2022/11/16 06:33:41;;;;;;;13.27;11.20;;;14.30;99.90;;;;;;5075314;28;20201;-77
2022/11/16 06:36:10;;;;;;;13.57;11.63;;;14.40;99.90;;;;;;5069884;28;20202;-77
2022/11/16 06:38:37;;;;;;;12.97;11.27;;;14.50;99.90;;;;;;5072986;28;20190;-77
2022/11/16 06:41:03;;;;;;;12.80;11.50;;;14.60;99.90;;;;;;5071953;28;20684;-77
2022/11/16 06:43:30;;;;;;;12.40;10.43;;;14.70;99.90;;;;;;5070901;28;20206;-77
2022/11/16 06:45:58;;;;;;;16.83;11.77;;;14.80;99.90;;;;;;5067359;28;20290;-77
2022/11/16 06:48:25;;;;;;;12.60;10.50;;;14.80;99.90;;;;;;5069111;28;20227;-77
2022/11/16 06:50:53;;;;;;;12.73;10.03;;;14.80;99.90;;;;;;5063812;28;20187;-77
2022/11/16 06:53:20;;;;;;;13.83;10.50;;;14.80;99.90;;;;;;5062516;28;20182;-77
2022/11/16 06:55:46;;;;;;;14.30;10.93;;;14.80;99.90;;;;;;5052383;28;20650;-77
2022/11/16 06:58:13;;;;;;;14.00;10.83;;;14.80;99.90;;;;;;5062676;28;20197;-77
2022/11/16 07:00:39;;;;;;;11.90;10.60;;;14.70;99.90;;;;;;5050348;28;20185;-78
2022/11/16 07:03:07;;;;;;;12.73;10.87;;;14.70;99.90;;;;;;5080730;28;20623;-77
2022/11/16 07:05:33;;;;;;;12.23;11.00;;;14.80;99.90;;;;;;5067116;28;20217;-77
2022/11/16 07:08:00;;;;;;;12.70;10.83;;;14.80;99.90;;;;;;5052086;28;20175;-77
2022/11/16 07:10:27;;;;;;;12.67;10.93;;;14.90;99.90;;;;;;5070868;28;20217;-77
2022/11/16 07:12:54;;;;;;;13.73;10.67;;;14.90;99.90;;;;;;5090046;28;20187;-77
2022/11/16 07:15:21;;;;;;;13.70;11.40;;;14.90;99.90;;;;;;5065266;28;20203;-77
2022/11/16 07:17:48;;;;;;;16.90;11.07;;;14.90;99.90;;;;;;5085893;28;20628;-77
2022/11/16 07:20:15;;;;;;;14.00;11.30;;;15.00;99.90;;;;;;5050670;28;20301;-77
2022/11/16 07:22:43;;;;;;;15.07;10.47;;;15.00;99.90;;;;;;5080366;28;20189;-77
2022/11/16 07:25:09;;;;;;;13.70;11.17;;;15.00;99.90;;;;;;5057378;28;20182;-77
2022/11/16 07:27:35;;;;;;;12.93;10.93;;;15.00;99.90;;;;;;5083301;28;20190;-77
2022/11/16 07:30:04;;;;;;;12.67;10.20;;;15.00;99.90;;;;;;5058919;28;20276;-77
2022/11/16 07:32:31;;;;;;;15.83;10.77;;;15.10;99.90;;;;;;5070573;28;20921;-77
2022/11/16 07:35:00;;;;;;;13.10;11.20;;;15.10;99.90;;;;;;5072873;28;20216;-77
2022/11/16 07:37:26;;;;;;;12.30;10.90;;;15.10;99.90;;;;;;5074722;28;20202;-77
2022/11/16 07:39:52;;;;;;;12.63;10.70;;;15.10;99.90;;;;;;5075902;28;20190;-77
2022/11/16 07:42:18;;;;;;;11.13;9.93;;;15.10;99.90;;;;;;5075823;28;20174;-77
2022/11/16 07:44:46;;;;;;;12.70;10.10;;;15.10;99.90;;;;;;5078441;28;20194;-77
2022/11/16 07:47:13;;;;;;;14.37;10.87;;;15.10;99.90;;;;;;5079393;28;20214;-77
2022/11/16 07:49:39;;;;;;;13.33;11.30;;;15.10;99.90;;;;;;5070661;28;20209;-77
2022/11/16 07:52:14;;;;;;;14.30;11.23;;;15.10;99.90;;;;;;5102727;28;20721;-77
2022/11/16 07:54:42;;;;;;;14.70;11.10;;;15.10;99.90;;;;;;5072823;28;20193;-77
2022/11/16 07:57:10;;;;;;;13.77;11.10;;;15.10;99.90;;;;;;5077069;28;20186;-77
2022/11/16 07:59:36;;;;;;;12.40;10.70;;;15.10;99.90;;;;;;5089283;28;20198;-77
2022/11/16 08:02:02;;;;;;;11.77;10.57;;;15.10;99.90;;;;;;5074080;28;20191;-77
2022/11/16 08:04:30;;;;;;;11.50;10.30;;;15.20;99.90;;;;;;5084029;28;20218;-77
2022/11/16 08:06:56;;;;;;;13.73;10.93;;;15.20;99.90;;;;;;5070869;28;20343;-78
2022/11/16 08:09:22;;;;;;;12.47;10.20;;;15.20;99.90;;;;;;5074436;28;20214;-78
2022/11/16 08:12:56;;;;;;;12.13;10.93;;;15.30;99.90;;;;;;5090971;28;20242;-77
2022/11/16 08:15:25;;;;;;;15.67;10.83;;;15.30;99.90;;;;;;5071052;28;20200;-77
2022/11/16 08:17:51;;;;;;;12.10;10.67;;;15.40;99.90;;;;;;5071031;28;20276;-77
2022/11/16 08:20:17;;;;;;;13.60;11.30;;;15.40;99.90;;;;;;5072420;28;20219;-76
2022/11/16 08:22:44;;;;;;;12.93;11.33;;;15.50;99.90;;;;;;5049677;28;20197;-77
2022/11/16 08:25:12;;;;;;;16.20;11.73;;;15.50;99.90;;;;;;5063485;28;20182;-76
2022/11/16 08:27:38;;;;;;;11.33;10.00;;;15.60;99.90;;;;;;5071784;28;20224;-77
2022/11/16 08:30:08;;;;;;;11.97;10.33;;;15.70;99.90;;;;;;5048058;28;20190;-78
2022/11/16 08:32:36;;;;;;;12.10;10.63;;;15.70;99.90;;;;;;5064562;28;20277;-77
2022/11/16 08:35:06;;;;;;;13.77;11.17;;;15.70;99.90;;;;;;5085308;28;20189;-77
2022/11/16 08:37:33;;;;;;;11.97;10.67;;;15.70;99.90;;;;;;5069052;28;20194;-77
2022/11/16 08:40:01;;;;;;;11.90;10.20;;;15.70;99.90;;;;;;5061351;28;20193;-77
2022/11/16 08:42:27;;;;;;;13.30;10.80;;;15.70;99.90;;;;;;5079351;28;20447;-77
2022/11/16 08:44:56;;;;;;;10.63;9.53;;;15.70;99.90;;;;;;5054298;28;20198;-77
2022/11/16 08:47:23;;;;;;;10.60;9.57;;;15.70;99.90;;;;;;5071344;28;20246;-77
2022/11/16 08:49:51;;;;;;;12.93;9.73;;;15.80;99.90;;;;;;5069555;28;20179;-77
2022/11/16 08:52:18;;;;;;;9.60;8.60;;;15.90;99.90;;;;;;5078901;28;20255;-77
2022/11/16 08:54:46;;;;;;;10.67;9.60;;;16.00;99.90;;;;;;5066949;28;20673;-77
2022/11/16 08:57:13;;;;;;;10.40;9.30;;;16.00;99.90;;;;;;5063034;28;20665;-78
2022/11/16 08:59:39;;;;;;;10.57;9.47;;;16.00;99.90;;;;;;5065670;28;20236;-77
2022/11/16 09:02:06;;;;;;;10.50;9.27;;;15.90;99.90;;;;;;5050450;28;20186;-77
2022/11/16 09:04:33;;;;;;;10.17;9.17;;;15.90;99.90;;;;;;5065022;28;20324;-77
2022/11/16 09:06:59;;;;;;;11.33;8.87;;;15.90;99.90;;;;;;5068298;28;20206;-77
2022/11/16 09:09:26;;;;;;;12.40;9.87;;;15.80;99.90;;;;;;5068828;28;20221;-77
2022/11/16 09:11:54;;;;;;;11.80;9.67;;;15.80;99.90;;;;;;5089863;28;20190;-77
2022/11/16 09:14:21;;;;;;;11.07;9.80;;;15.80;99.90;;;;;;5083622;28;20181;-77
2022/11/16 09:16:47;;;;;;;10.97;9.30;;;15.80;99.90;;;;;;5063832;28;20190;-77
2022/11/16 09:19:14;;;;;;;11.20;10.00;;;15.80;99.90;;;;;;5063857;28;20186;-77
2022/11/16 09:21:40;;;;;;;11.23;9.57;;;15.70;99.90;;;;;;5096196;28;20721;-77
2022/11/16 09:24:06;;;;;;;10.33;9.20;;;15.80;99.90;;;;;;5065853;28;20193;-78
2022/11/16 09:26:33;;;;;;;11.27;10.03;;;15.80;99.90;;;;;;5070094;28;20705;-76
2022/11/16 09:29:03;;;;;;;10.80;9.40;;;15.80;99.90;;;;;;5071899;28;20193;-77
2022/11/16 09:31:36;;;;;;;12.60;9.67;;;15.80;99.90;;;;;;5055530;28;20314;-77
2022/11/16 09:34:04;;;;;;;9.97;8.97;;;15.90;99.90;;;;;;5056614;28;20192;-77
2022/11/16 09:36:31;;;;;;;10.17;8.83;;;16.10;99.90;;;;;;5087678;28;20718;-77
2022/11/16 09:38:59;;;;;;;11.40;9.43;;;16.30;99.90;;;;;;5084775;28;20264;-78
2022/11/16 09:41:56;;;;;;;11.10;9.40;;;16.50;99.90;;;;;;5054383;28;20191;-77
2022/11/16 09:45:03;;;;;;;10.80;9.27;;;16.50;99.90;;;;;;5054236;28;20232;-77
2022/11/16 09:47:58;;;;;;;9.83;8.63;;;16.50;99.90;;;;;;5002873;28;20229;-78
2022/11/16 09:50:34;;;;;;;12.87;9.23;;;16.60;99.90;;;;;;5081319;28;20198;-77
2022/11/16 09:53:29;;;;;;;10.77;8.87;;;16.70;99.90;;;;;;5074995;28;20223;-78
2022/11/16 09:56:04;;;;;;;11.37;9.60;;;16.80;99.90;;;;;;5050042;28;20195;-78
2022/11/16 09:58:46;;;;;;;12.17;8.57;;;16.90;99.90;;;;;;5081388;28;20251;-78
2022/11/16 10:01:53;;;;;;;10.53;8.03;;;16.90;99.90;;;;;;5082250;28;20223;-78
2022/11/16 10:04:39;;;;;;;9.03;8.00;;;17.10;99.90;;;;;;5035180;28;20204;-78
2022/11/16 10:07:23;;;;;;;8.27;7.00;;;17.20;99.90;;;;;;5048164;28;20676;-78
2022/11/16 10:09:50;;;;;;;8.87;7.03;;;17.40;99.90;;;;;;5081171;28;20531;-78
2022/11/16 10:12:30;;;;;;;7.47;6.77;;;17.40;99.90;;;;;;5077722;28;20182;-78
2022/11/16 10:15:08;;;;;;;8.23;6.20;;;17.30;99.90;;;;;;5044303;28;20563;-78
2022/11/16 10:18:02;;;;;;;7.10;6.40;;;17.30;99.90;;;;;;5068807;28;20190;-78
2022/11/16 10:21:17;;;;;;;8.77;7.20;;;17.20;99.90;;;;;;5061762;28;20195;-78
2022/11/16 10:24:39;;;;;;;13.10;7.43;;;17.30;99.90;;;;;;5080829;28;20217;-78
2022/11/16 10:27:17;;;;;;;9.53;6.80;;;17.60;99.90;;;;;;5026777;28;20329;-78
2022/11/16 10:30:07;;;;;;;8.53;6.43;;;18.00;99.90;;;;;;5052221;28;20271;-78
2022/11/16 10:32:48;;;;;;;6.50;5.80;;;17.90;99.90;;;;;;5044375;28;20197;-78
2022/11/16 10:35:39;;;;;;;7.90;6.23;;;17.70;99.90;;;;;;5080818;28;20202;-78
2022/11/16 10:38:20;;;;;;;8.30;6.10;;;17.70;99.90;;;;;;5053693;28;20221;-78
2022/11/16 10:40:56;;;;;;;7.50;5.67;;;17.90;99.90;;;;;;5070353;28;20603;-78
2022/11/16 10:43:32;;;;;;;7.13;5.30;;;18.00;99.90;;;;;;5078239;28;20203;-78
2022/11/16 10:46:36;;;;;;;6.53;5.20;;;18.20;99.90;;;;;;5069089;28;20305;-78
2022/11/16 10:49:29;;;;;;;7.47;5.23;;;18.40;99.90;;;;;;5060724;28;20191;-78
2022/11/16 10:51:58;;;;;;;7.43;5.50;;;18.60;99.90;;;;;;5079058;28;20200;-78
2022/11/16 10:54:24;;;;;;;5.37;4.80;;;18.80;99.90;;;;;;5054806;28;21004;-78
2022/11/16 10:57:25;;;;;;;8.00;4.63;;;18.90;99.90;;;;;;5085326;28;20190;-78
2022/11/16 10:59:54;;;;;;;7.83;4.77;;;19.10;99.90;;;;;;5068560;28;20277;-78
2022/11/16 11:02:34;;;;;;;5.50;4.63;;;19.20;99.90;;;;;;5072835;28;20262;-78
2022/11/16 11:05:19;;;;;;;7.73;5.33;;;19.20;99.90;;;;;;5083225;28;20187;-78
2022/11/16 11:08:04;;;;;;;6.80;5.27;;;19.10;99.90;;;;;;5078861;28;20190;-78
2022/11/16 11:10:40;;;;;;;7.90;5.10;;;18.80;99.90;;;;;;5065780;28;20202;-78
2022/11/16 11:13:10;;;;;;;7.87;5.30;;;18.70;99.90;;;;;;5095566;28;20220;-78
2022/11/16 11:15:42;;;;;;;6.13;4.70;;;18.60;99.90;;;;;;5051457;28;20182;-77
2022/11/16 11:18:25;;;;;;;7.07;5.97;;;18.60;99.90;;;;;;5066413;28;20195;-78
2022/11/16 11:21:18;;;;;;;6.27;5.17;;;18.60;99.90;;;;;;5057500;28;20186;-78
2022/11/16 11:23:51;;;;;;;9.90;5.10;;;18.60;99.90;;;;;;5052536;28;20198;-78
2022/11/16 11:26:32;;;;;;;7.93;5.40;;;18.70;99.90;;;;;;5050080;28;20254;-78
2022/11/16 11:29:02;;;;;;;8.07;5.20;;;18.70;99.90;;;;;;5069700;28;20208;-78
2022/11/16 11:31:47;;;;;;;7.53;5.77;;;18.80;99.90;;;;;;5082431;28;20186;-78
2022/11/16 11:34:33;;;;;;;8.00;5.47;;;18.80;99.90;;;;;;5064589;28;20190;-78
2022/11/16 11:37:04;;;;;;;7.30;5.67;;;18.90;99.90;;;;;;5082083;28;20213;-78
2022/11/16 11:39:35;;;;;;;9.00;5.53;;;18.90;99.90;;;;;;5066965;28;20278;-78
2022/11/16 11:42:20;;;;;;;6.23;5.57;;;18.90;99.90;;;;;;5041928;28;20662;-78
2022/11/16 11:44:53;;;;;;;6.83;4.47;;;18.80;99.90;;;;;;5064708;28;20271;-79
2022/11/16 11:48:00;;;;;;;7.13;4.90;;;18.90;99.90;;;;;;5045716;28;20214;-78
2022/11/16 11:50:43;;;;;;;9.87;4.70;;;18.80;99.90;;;;;;5083088;28;20246;-78
2022/11/16 11:53:41;;;;;;;6.80;4.80;;;18.80;99.90;;;;;;5082065;28;20190;-78
2022/11/16 11:56:11;;;;;;;7.47;5.87;;;18.90;99.90;;;;;;5082959;28;20259;-78
2022/11/16 11:58:40;;;;;;;11.07;6.13;;;18.90;99.90;;;;;;5047953;28;20232;-78
2022/11/16 12:01:46;;;;;;;7.63;6.20;;;18.80;99.90;;;;;;5066276;28;20228;-78
2022/11/16 12:04:57;;;;;;;7.57;6.63;;;18.80;99.90;;;;;;5054033;28;20662;-79
2022/11/16 12:07:47;;;;;;;8.10;6.97;;;18.80;99.90;;;;;;5090239;28;20222;-78
2022/11/16 12:10:46;;;;;;;9.10;7.00;;;18.80;99.90;;;;;;5088583;28;20658;-78
2022/11/16 12:13:56;;;;;;;9.23;7.07;;;18.70;99.90;;;;;;5057815;28;20187;-79
2022/11/16 12:17:04;;;;;;;8.33;6.63;;;18.60;99.90;;;;;;5085042;28;20255;-78
2022/11/16 12:20:27;;;;;;;8.87;6.70;;;18.60;99.90;;;;;;5065131;28;20200;-78
2022/11/16 12:23:32;;;;;;;8.30;7.50;;;18.60;99.90;;;;;;5000714;28;20208;-78
2022/11/16 12:26:38;;;;;;;8.23;7.30;;;18.60;99.90;;;;;;5082782;28;20573;-78
2022/11/16 12:29:23;;;;;;;9.57;7.43;;;18.60;99.90;;;;;;5085615;28;20627;-77
2022/11/16 12:32:20;;;;;;;11.33;6.87;;;18.50;99.90;;;;;;5044741;28;20225;-76
2022/11/16 12:35:05;;;;;;;11.50;7.10;;;18.50;99.90;;;;;;5062437;28;20866;-77
2022/11/16 12:38:30;;;;;;;8.80;7.50;;;18.30;99.90;;;;;;5057751;28;20194;-77
2022/11/16 12:41:41;;;;;;;10.30;7.67;;;18.20;99.90;;;;;;5053948;28;20745;-77
2022/11/16 12:44:13;;;;;;;9.43;7.80;;;18.20;99.90;;;;;;5063217;28;20660;-77
2022/11/16 12:47:16;;;;;;;11.07;7.53;;;18.20;99.90;;;;;;5071248;28;20279;-77
2022/11/16 12:50:20;;;;;;;9.67;8.00;;;18.30;99.90;;;;;;5056471;28;20575;-77
2022/11/16 12:53:31;;;;;;;9.30;8.30;;;18.30;99.90;;;;;;5072482;28;20198;-76
2022/11/16 12:56:45;;;;;;;13.37;8.50;;;18.20;99.90;;;;;;5079780;28;20277;-77
2022/11/16 13:00:01;;;;;;;9.10;8.13;;;18.20;99.90;;;;;;5061451;28;20554;-77
2022/11/16 13:03:14;;;;;;;10.80;8.03;;;18.20;99.90;;;;;;5070312;28;20575;-77
2022/11/16 13:06:13;;;;;;;10.13;7.20;;;18.10;99.90;;;;;;5054619;28;20364;-76
2022/11/16 13:09:28;;;;;;;11.77;7.90;;;17.90;99.90;;;;;;5056603;28;20194;-77
2022/11/16 13:12:00;;;;;;;10.63;8.30;;;17.90;99.90;;;;;;5052500;28;20194;-76
2022/11/16 13:14:54;;;;;;;15.57;8.60;;;17.90;99.90;;;;;;5068031;28;20186;-76
2022/11/16 13:17:28;;;;;;;11.83;8.67;;;17.90;99.90;;;;;;5047680;28;20246;-76
2022/11/16 13:20:28;;;;;;;9.80;8.50;;;17.90;99.90;;;;;;5073703;28;20191;-76
2022/11/16 13:23:21;;;;;;;15.23;8.13;;;17.90;99.90;;;;;;5088422;28;20194;-76
2022/11/16 13:26:11;;;;;;;9.77;8.17;;;17.90;99.90;;;;;;5073055;28;20217;-77
2022/11/16 13:29:13;;;;;;;9.57;8.20;;;17.80;99.90;;;;;;5074091;28;20182;-76
2022/11/16 13:31:54;;;;;;;10.63;7.47;;;17.80;99.90;;;;;;5040941;28;20198;-76
2022/11/16 13:34:29;;;;;;;11.27;8.13;;;17.80;99.90;;;;;;5095212;28;20251;-76
2022/11/16 13:36:56;;;;;;;8.97;7.53;;;17.70;99.90;;;;;;5095186;28;20197;-76
2022/11/16 13:39:58;;;;;;;10.43;8.53;;;17.60;99.90;;;;;;5089491;28;20245;-76
2022/11/16 13:42:25;;;;;;;10.27;7.90;;;17.60;99.90;;;;;;5073712;28;20198;-76
2022/11/16 13:45:03;;;;;;;9.90;7.87;;;17.50;99.90;;;;;;5057977;28;20543;-76
2022/11/16 13:47:30;;;;;;;11.93;8.47;;;17.40;99.90;;;;;;5090829;28;20578;-77
2022/11/16 13:50:15;;;;;;;11.53;7.73;;;17.30;99.90;;;;;;5073172;28;20224;-76
2022/11/16 13:52:46;;;;;;;11.03;8.30;;;17.30;99.90;;;;;;5072958;28;20209;-77
2022/11/16 13:55:24;;;;;;;9.40;8.00;;;17.30;99.90;;;;;;5095877;28;20534;-76
2022/11/16 13:57:55;;;;;;;15.67;8.60;;;17.20;99.90;;;;;;5078135;28;20239;-76